Time;durP1;ratioP1;P1;durP2;ratioP2;P2;SDS_P1;SDS_P2;PMS_P1;PMS_P2;Temp;Humidity;BMP_temperature;BMP_pressure;BME280_temperature;BME280_humidity;BME280_pressure;Samples;Min_cycle;Max_cycle;Signal;HPM_P1;HPM_P2
2023/12/11 00:02:46;;;;;;;36.20;15.63;;;;;;;;;;8299200;28;20119;-90
2023/12/11 00:06:49;;;;;;;27.35;12.50;;;;;;;;;;8299196;28;20486;-90
2023/12/11 00:10:52;;;;;;;32.65;13.40;;;;;;;;;;8299077;28;20153;-92
2023/12/11 00:14:54;;;;;;;32.97;15.38;;;;;;;;;;8298675;28;20046;-91
2023/12/11 00:18:59;;;;;;;38.97;15.45;;;;;;;;;;8299193;28;20570;-92
2023/12/11 00:27:24;;;;;;;40.33;16.43;;;;;;;;;;8299559;28;20054;-91
2023/12/11 00:31:27;;;;;;;37.42;16.88;;;;;;;;;;8298645;28;20058;-91
2023/12/11 00:35:31;;;;;;;42.47;15.80;;;;;;;;;;8297713;28;20516;-91
2023/12/11 00:39:35;;;;;;;37.45;14.50;;;;;;;;;;8297939;28;20505;-91
2023/12/11 00:43:38;;;;;;;33.33;13.65;;;;;;;;;;8281551;28;20046;-91
2023/12/11 00:47:41;;;;;;;41.15;15.70;;;;;;;;;;8298075;28;20520;-93
2023/12/11 00:51:46;;;;;;;57.38;16.63;;;;;;;;;;8298134;28;20498;-90
2023/12/11 00:55:49;;;;;;;43.58;16.33;;;;;;;;;;8298750;28;20050;-90
2023/12/11 00:59:51;;;;;;;30.88;14.20;;;;;;;;;;8280356;28;20053;-92
2023/12/11 01:03:54;;;;;;;39.65;14.43;;;;;;;;;;8297852;28;20046;-91
2023/12/11 01:07:58;;;;;;;38.35;14.32;;;;;;;;;;8299151;28;20073;-90
2023/12/11 01:12:01;;;;;;;44.17;14.48;;;;;;;;;;8303816;28;20046;-91
2023/12/11 01:16:05;;;;;;;32.08;12.52;;;;;;;;;;8303680;28;20050;-91
2023/12/11 01:20:08;;;;;;;40.38;14.48;;;;;;;;;;8303511;28;20116;-89
2023/12/11 01:24:13;;;;;;;28.25;12.50;;;;;;;;;;8303780;28;20108;-91
2023/12/11 01:28:16;;;;;;;34.35;13.48;;;;;;;;;;8303265;28;20125;-92
2023/12/11 01:32:19;;;;;;;30.65;13.90;;;;;;;;;;8303088;28;20069;-89
2023/12/11 01:36:22;;;;;;;32.38;13.60;;;;;;;;;;8303300;28;20116;-91
2023/12/11 01:40:26;;;;;;;35.35;12.25;;;;;;;;;;8302934;28;20132;-90
2023/12/11 01:44:30;;;;;;;37.03;13.82;;;;;;;;;;8302751;28;20042;-90
2023/12/11 01:48:33;;;;;;;29.48;12.18;;;;;;;;;;8302629;28;20062;-90
2023/12/11 01:52:36;;;;;;;30.27;12.32;;;;;;;;;;8302660;28;20045;-92
2023/12/11 01:56:41;;;;;;;37.05;11.50;;;;;;;;;;8302519;28;20049;-90
2023/12/11 02:00:44;;;;;;;26.48;9.95;;;;;;;;;;8284708;28;20061;-92
2023/12/11 02:04:49;;;;;;;33.95;14.00;;;;;;;;;;8302252;28;20048;-92
2023/12/11 02:08:52;;;;;;;27.40;11.80;;;;;;;;;;8302340;28;20414;-90
2023/12/11 02:12:56;;;;;;;30.02;12.38;;;;;;;;;;8302221;28;20497;-92
2023/12/11 02:16:59;;;;;;;30.05;12.07;;;;;;;;;;8301966;28;20056;-90
2023/12/11 02:21:02;;;;;;;28.42;11.82;;;;;;;;;;8301437;28;20049;-91
2023/12/11 02:25:06;;;;;;;29.30;10.57;;;;;;;;;;8301869;28;20508;-91
2023/12/11 02:29:11;;;;;;;33.55;11.82;;;;;;;;;;8302638;28;20077;-90
2023/12/11 02:33:14;;;;;;;24.90;10.43;;;;;;;;;;8302870;28;20124;-92
2023/12/11 02:37:16;;;;;;;29.80;11.10;;;;;;;;;;8283944;28;20513;-90
2023/12/11 02:41:19;;;;;;;21.45;9.93;;;;;;;;;;8301151;28;20050;-90
2023/12/11 02:45:23;;;;;;;31.08;11.50;;;;;;;;;;8301441;28;20550;-91
2023/12/11 02:49:26;;;;;;;20.75;8.98;;;;;;;;;;8300650;28;20042;-91
2023/12/11 02:53:29;;;;;;;22.42;9.27;;;;;;;;;;8300525;28;20128;-90
2023/12/11 02:57:32;;;;;;;25.27;10.23;;;;;;;;;;8300696;28;20057;-90
2023/12/11 03:01:41;;;;;;;25.90;10.85;;;;;;;;;;8300815;28;20072;-89
2023/12/11 03:05:44;;;;;;;24.75;10.32;;;;;;;;;;8300666;28;20131;-90
2023/12/11 03:09:47;;;;;;;27.38;11.73;;;;;;;;;;8299592;28;20096;-92
2023/12/11 03:13:50;;;;;;;30.67;12.05;;;;;;;;;;8299138;28;20136;-91
2023/12/11 03:17:54;;;;;;;26.30;10.68;;;;;;;;;;8299293;28;20045;-89
2023/12/11 03:21:57;;;;;;;23.48;10.10;;;;;;;;;;8299449;28;20045;-92
2023/12/11 03:26:00;;;;;;;28.52;12.23;;;;;;;;;;8299337;28;20124;-91
2023/12/11 03:30:04;;;;;;;34.75;15.13;;;;;;;;;;8298435;28;20092;-90
2023/12/11 03:34:08;;;;;;;42.90;14.63;;;;;;;;;;8299032;28;20129;-89
2023/12/11 03:38:11;;;;;;;26.63;10.68;;;;;;;;;;8299005;28;20046;-91
2023/12/11 03:42:14;;;;;;;31.45;12.27;;;;;;;;;;8298767;28;20382;-91
2023/12/11 03:46:17;;;;;;;29.60;14.20;;;;;;;;;;8281534;28;20045;-91
2023/12/11 03:50:21;;;;;;;28.77;10.52;;;;;;;;;;8298451;28;20046;-90
2023/12/11 03:54:24;;;;;;;42.08;16.98;;;;;;;;;;8298637;28;20667;-90
2023/12/11 03:58:27;;;;;;;30.00;14.00;;;;;;;;;;8298653;28;20052;-91
2023/12/11 04:02:32;;;;;;;29.52;12.98;;;;;;;;;;8297992;28;20557;-92
2023/12/11 04:06:36;;;;;;;34.40;14.40;;;;;;;;;;8298434;28;20816;-90
2023/12/11 04:10:39;;;;;;;26.88;12.40;;;;;;;;;;8298319;28;20056;-90
2023/12/11 04:14:42;;;;;;;30.45;13.70;;;;;;;;;;8297947;28;20425;-89
2023/12/11 04:18:45;;;;;;;26.38;14.02;;;;;;;;;;8297949;28;20046;-91
2023/12/11 04:22:49;;;;;;;17.33;7.95;;;;;;;;;;8297934;28;20046;-88
2023/12/11 04:26:52;;;;;;;35.45;12.25;;;;;;;;;;8297834;28;20073;-91
2023/12/11 04:30:55;;;;;;;28.50;12.07;;;;;;;;;;8297516;28;20069;-90
2023/12/11 04:34:58;;;;;;;28.77;12.45;;;;;;;;;;8297601;28;20061;-90
2023/12/11 04:39:03;;;;;;;29.92;12.85;;;;;;;;;;8297742;28;20052;-91
2023/12/11 04:43:06;;;;;;;26.65;12.70;;;;;;;;;;8301026;28;20058;-89
2023/12/11 04:47:09;;;;;;;26.48;13.15;;;;;;;;;;8304037;28;20132;-90
2023/12/11 04:51:12;;;;;;;19.98;10.00;;;;;;;;;;8303931;28;20053;-90
2023/12/11 04:55:17;;;;;;;24.52;11.85;;;;;;;;;;8303916;28;20052;-89
2023/12/11 04:59:19;;;;;;;29.40;10.70;;;;;;;;;;8303646;28;20124;-89
2023/12/11 05:03:22;;;;;;;24.33;11.30;;;;;;;;;;8303480;28;20084;-90
2023/12/11 05:07:26;;;;;;;26.67;12.02;;;;;;;;;;8303379;28;20054;-88
2023/12/11 05:11:31;;;;;;;26.05;9.93;;;;;;;;;;8303155;28;20179;-90
2023/12/11 05:15:34;;;;;;;19.85;9.57;;;;;;;;;;8303301;28;20465;-90
2023/12/11 05:19:37;;;;;;;19.63;9.73;;;;;;;;;;8303022;28;20132;-89
2023/12/11 05:23:41;;;;;;;18.50;8.23;;;;;;;;;;8303179;28;20057;-90
2023/12/11 05:27:46;;;;;;;19.83;9.60;;;;;;;;;;8302769;28;20128;-91
2023/12/11 05:31:48;;;;;;;22.88;9.27;;;;;;;;;;8302641;28;20132;-91
2023/12/11 05:35:51;;;;;;;21.25;11.77;;;;;;;;;;8302663;28;20137;-90
2023/12/11 05:39:54;;;;;;;16.33;6.82;;;;;;;;;;8302690;28;20111;-90
2023/12/11 05:43:59;;;;;;;22.98;8.82;;;;;;;;;;8302866;28;20054;-91
2023/12/11 05:48:02;;;;;;;20.05;9.50;;;;;;;;;;8302688;28;20099;-92
2023/12/11 05:52:05;;;;;;;20.98;7.65;;;;;;;;;;8303735;28;20107;-90
2023/12/11 05:56:09;;;;;;;18.20;10.90;;;;;;;;;;8300694;28;20056;-90
2023/12/11 06:00:15;;;;;;;16.48;8.20;;;;;;;;;;8301580;28;20053;-88
2023/12/11 06:04:18;;;;;;;44.58;35.50;;;;;;;;;;8301664;28;20049;-88
2023/12/11 06:08:21;;;;;;;23.42;13.32;;;;;;;;;;8301626;28;20097;-89
2023/12/11 06:12:24;;;;;;;29.90;17.08;;;;;;;;;;8301428;28;20473;-91
2023/12/11 06:16:29;;;;;;;23.80;12.63;;;;;;;;;;8301265;28;20501;-90
2023/12/11 06:20:32;;;;;;;20.92;10.70;;;;;;;;;;8301115;28;20133;-91
2023/12/11 06:24:35;;;;;;;14.10;8.30;;;;;;;;;;8301162;28;20049;-91
2023/12/11 06:28:38;;;;;;;59.50;25.92;;;;;;;;;;8300824;28;20100;-87
2023/12/11 06:32:42;;;;;;;39.05;16.58;;;;;;;;;;8300806;28;20046;-89
2023/12/11 06:36:45;;;;;;;13.82;7.90;;;;;;;;;;8300621;28;20141;-89
2023/12/11 06:40:48;;;;;;;24.38;12.52;;;;;;;;;;8300456;28;20125;-89
2023/12/11 06:44:53;;;;;;;15.23;7.40;;;;;;;;;;8300265;28;20045;-89
2023/12/11 06:48:57;;;;;;;13.35;7.07;;;;;;;;;;8300155;28;20052;-90
2023/12/11 06:53:00;;;;;;;23.88;13.57;;;;;;;;;;8300259;28;20053;-88
2023/12/11 06:57:04;;;;;;;21.48;12.10;;;;;;;;;;8299667;28;20095;-90
2023/12/11 07:01:10;;;;;;;13.88;7.28;;;;;;;;;;8299519;28;20617;-88
2023/12/11 07:05:14;;;;;;;12.95;7.72;;;;;;;;;;8298712;28;20042;-89
2023/12/11 07:09:17;;;;;;;15.95;7.30;;;;;;;;;;8299281;28;20141;-86
2023/12/11 07:13:20;;;;;;;12.43;6.32;;;;;;;;;;8299543;28;20099;-91
2023/12/11 07:17:23;;;;;;;19.05;7.90;;;;;;;;;;8299094;28;20050;-91
2023/12/11 07:21:28;;;;;;;17.70;6.85;;;;;;;;;;8299247;28;20129;-90
2023/12/11 07:25:31;;;;;;;19.95;7.97;;;;;;;;;;8299109;28;20474;-90
2023/12/11 07:29:34;;;;;;;13.18;6.53;;;;;;;;;;8299138;28;20410;-90
2023/12/11 07:33:37;;;;;;;12.23;5.82;;;;;;;;;;8298833;28;20056;-90
2023/12/11 07:37:42;;;;;;;18.80;7.75;;;;;;;;;;8298976;28;20054;-89
2023/12/11 07:41:45;;;;;;;16.02;7.45;;;;;;;;;;8298788;28;20414;-91
2023/12/11 07:45:48;;;;;;;15.60;7.50;;;;;;;;;;8299085;28;20041;-85
2023/12/11 07:49:51;;;;;;;20.45;11.80;;;;;;;;;;8299171;28;20100;-89
2023/12/11 07:53:58;;;;;;;24.63;13.45;;;;;;;;;;8298705;28;20390;-91
2023/12/11 07:58:02;;;;;;;18.55;9.68;;;;;;;;;;8299337;28;20478;-92
2023/12/11 08:02:06;;;;;;;14.93;7.03;;;;;;;;;;8298795;28;20103;-90
2023/12/11 08:06:10;;;;;;;20.50;9.40;;;;;;;;;;8298649;28;20107;-90
2023/12/11 08:10:16;;;;;;;18.35;8.60;;;;;;;;;;8298547;28;20099;-92
2023/12/11 08:14:19;;;;;;;24.00;11.50;;;;;;;;;;8298494;28;20482;-91
2023/12/11 08:18:22;;;;;;;15.80;9.27;;;;;;;;;;8297783;28;20062;-89
2023/12/11 08:22:25;;;;;;;15.18;6.72;;;;;;;;;;8298613;28;20057;-89
2023/12/11 08:26:29;;;;;;;20.70;7.15;;;;;;;;;;8297869;28;20121;-89
2023/12/11 08:30:32;;;;;;;16.15;6.85;;;;;;;;;;8317688;28;20382;-90
2023/12/11 08:34:35;;;;;;;17.08;7.18;;;;;;;;;;8329930;28;20053;-89
2023/12/11 08:38:38;;;;;;;13.10;5.15;;;;;;;;;;8329632;28;20378;-89
2023/12/11 08:42:43;;;;;;;14.65;6.55;;;;;;;;;;8329829;28;20115;-88
2023/12/11 08:46:45;;;;;;;16.77;7.45;;;;;;;;;;8329936;28;20045;-89
2023/12/11 08:50:52;;;;;;;12.13;5.82;;;;;;;;;;8329715;28;20129;-89
2023/12/11 08:54:54;;;;;;;16.77;6.28;;;;;;;;;;8283663;28;20048;-90
2023/12/11 08:58:59;;;;;;;13.23;7.00;;;;;;;;;;8297078;28;20100;-89
2023/12/11 09:03:02;;;;;;;13.68;6.63;;;;;;;;;;8296792;28;20053;-90
2023/12/11 09:07:07;;;;;;;13.30;6.15;;;;;;;;;;8297217;28;20052;-91
2023/12/11 09:11:10;;;;;;;15.13;5.55;;;;;;;;;;8297092;28;20050;-90
2023/12/11 09:15:14;;;;;;;15.43;5.97;;;;;;;;;;8296787;28;20054;-89
2023/12/11 09:19:17;;;;;;;12.32;5.43;;;;;;;;;;8296781;28;20054;-87
2023/12/11 09:23:20;;;;;;;14.45;6.53;;;;;;;;;;8297603;28;20103;-89
2023/12/11 09:27:24;;;;;;;12.23;5.95;;;;;;;;;;8296893;28;20073;-89
2023/12/11 09:31:29;;;;;;;12.88;6.82;;;;;;;;;;8301616;28;20461;-90
2023/12/11 09:35:32;;;;;;;12.13;5.82;;;;;;;;;;8302362;28;20050;-90
2023/12/11 09:39:35;;;;;;;14.23;6.32;;;;;;;;;;8302185;28;20050;-88
2023/12/11 09:43:38;;;;;;;16.00;6.53;;;;;;;;;;8302173;28;20050;-90
2023/12/11 09:47:44;;;;;;;17.42;7.68;;;;;;;;;;8301857;28;20089;-88
2023/12/11 09:51:47;;;;;;;9.30;5.82;;;;;;;;;;8301629;28;20049;-89
2023/12/11 09:55:51;;;;;;;14.65;6.57;;;;;;;;;;8301541;28;20578;-88
2023/12/11 09:59:54;;;;;;;12.60;5.72;;;;;;;;;;8301364;28;20515;-90
2023/12/11 10:03:59;;;;;;;12.45;6.28;;;;;;;;;;8301260;28;20056;-90
2023/12/11 10:08:02;;;;;;;13.25;6.70;;;;;;;;;;8301247;28;20049;-90
2023/12/11 10:12:06;;;;;;;11.05;5.93;;;;;;;;;;8301715;28;20069;-88
2023/12/11 10:16:29;;;;;;;15.90;6.60;;;;;;;;;;8301218;28;20456;-89
2023/12/11 10:20:34;;;;;;;10.68;5.95;;;;;;;;;;8301135;28;20133;-89
2023/12/11 10:24:43;;;;;;;11.38;4.97;;;;;;;;;;8301289;28;20519;-89
2023/12/11 10:28:45;;;;;;;14.82;6.53;;;;;;;;;;8283743;28;20572;-90
2023/12/11 10:32:48;;;;;;;11.68;5.53;;;;;;;;;;8300607;28;20073;-88
2023/12/11 10:36:54;;;;;;;14.38;6.85;;;;;;;;;;8300083;28;20076;-90
2023/12/11 10:40:57;;;;;;;10.07;5.10;;;;;;;;;;8299910;28;20057;-88
2023/12/11 10:45:01;;;;;;;17.25;7.45;;;;;;;;;;8299900;28;20120;-89
2023/12/11 10:49:04;;;;;;;21.08;8.43;;;;;;;;;;8299619;28;20076;-89
2023/12/11 10:53:09;;;;;;;16.45;6.55;;;;;;;;;;8299529;28;20107;-89
2023/12/11 10:57:14;;;;;;;22.83;8.80;;;;;;;;;;8299750;28;20053;-89
2023/12/11 11:01:18;;;;;;;20.00;7.63;;;;;;;;;;8299439;28;20093;-89
2023/12/11 11:05:23;;;;;;;14.80;7.18;;;;;;;;;;8299628;28;20045;-90
2023/12/11 11:09:34;;;;;;;12.23;6.22;;;;;;;;;;8300211;28;20382;-89
2023/12/11 11:13:43;;;;;;;19.17;8.63;;;;;;;;;;8299639;28;20050;-89
2023/12/11 11:22:43;;;;;;;12.10;5.55;;;;;;;;;;8272942;28;20557;-89
2023/12/11 11:26:48;;;;;;;11.13;5.93;;;;;;;;;;8299183;28;20497;-89
2023/12/11 11:30:53;;;;;;;11.30;5.20;;;;;;;;;;8299253;28;20442;-91
2023/12/11 11:34:56;;;;;;;17.25;6.70;;;;;;;;;;8298777;28;20050;-90
2023/12/11 11:39:01;;;;;;;14.70;7.95;;;;;;;;;;8298534;28;20183;-88
2023/12/11 11:43:09;;;;;;;9.40;4.60;;;;;;;;;;8298328;28;20045;-90
2023/12/11 11:47:11;;;;;;;12.02;5.10;;;;;;;;;;8280986;28;20045;-90
2023/12/11 11:51:17;;;;;;;11.80;5.22;;;;;;;;;;8297458;28;20056;-88
2023/12/11 11:55:24;;;;;;;10.90;5.53;;;;;;;;;;8298143;28;20046;-90
2023/12/11 11:59:28;;;;;;;13.75;5.88;;;;;;;;;;8297952;28;20061;-89
2023/12/11 12:03:40;;;;;;;9.18;4.55;;;;;;;;;;8297732;28;20064;-90
2023/12/11 12:07:43;;;;;;;23.35;10.80;;;;;;;;;;8311004;28;20542;-88
2023/12/11 12:11:46;;;;;;;19.15;9.95;;;;;;;;;;8330290;28;20129;-89
2023/12/11 12:15:51;;;;;;;16.98;5.97;;;;;;;;;;8329999;28;20049;-89
2023/12/11 12:20:26;;;;;;;13.02;5.13;;;;;;;;;;8330423;28;20069;-89
2023/12/11 12:24:40;;;;;;;10.02;5.70;;;;;;;;;;8263016;28;20116;-90
2023/12/11 12:28:43;;;;;;;11.40;5.35;;;;;;;;;;8280443;28;20056;-90
2023/12/11 12:32:49;;;;;;;12.82;5.70;;;;;;;;;;8297489;28;20050;-90
2023/12/11 12:36:55;;;;;;;20.27;7.88;;;;;;;;;;8298187;28;20053;-90
2023/12/11 12:40:58;;;;;;;18.05;7.97;;;;;;;;;;8297906;28;20074;-89
2023/12/11 12:45:02;;;;;;;20.73;6.80;;;;;;;;;;8323422;28;20128;-91
2023/12/11 12:49:10;;;;;;;14.88;6.03;;;;;;;;;;8300472;28;20050;-90
2023/12/11 12:53:13;;;;;;;11.68;4.78;;;;;;;;;;8316403;28;20104;-90
2023/12/11 12:57:17;;;;;;;12.88;6.20;;;;;;;;;;8307290;28;20053;-91
2023/12/11 13:01:20;;;;;;;21.85;9.52;;;;;;;;;;8313913;28;20053;-90
2023/12/11 13:05:40;;;;;;;18.23;6.97;;;;;;;;;;8335725;28;20069;-92
2023/12/11 13:09:44;;;;;;;12.32;4.95;;;;;;;;;;8337603;28;20508;-90
2023/12/11 13:13:54;;;;;;;9.02;3.78;;;;;;;;;;8337244;28;20045;-91
2023/12/11 13:17:57;;;;;;;12.68;5.47;;;;;;;;;;8337215;28;20049;-90
2023/12/11 13:22:02;;;;;;;20.38;7.60;;;;;;;;;;8337349;28;20554;-91
2023/12/11 13:26:05;;;;;;;15.85;7.50;;;;;;;;;;8319986;28;20049;-90
2023/12/11 13:30:09;;;;;;;16.58;6.15;;;;;;;;;;8337230;28;20047;-92
2023/12/11 13:34:12;;;;;;;15.05;5.13;;;;;;;;;;8337033;28;20131;-91
2023/12/11 13:38:16;;;;;;;14.73;5.80;;;;;;;;;;8337103;28;20053;-91
2023/12/11 13:42:19;;;;;;;11.00;5.03;;;;;;;;;;8337304;28;20045;-91
2023/12/11 13:46:23;;;;;;;11.10;4.80;;;;;;;;;;8337504;28;20545;-91
2023/12/11 13:50:25;;;;;;;14.18;6.63;;;;;;;;;;8336187;28;20067;-93
2023/12/11 13:54:30;;;;;;;11.65;5.78;;;;;;;;;;8335097;28;20060;-91
2023/12/11 13:58:33;;;;;;;11.43;5.63;;;;;;;;;;8335587;28;20172;-91
2023/12/11 14:02:35;;;;;;;14.85;5.85;;;;;;;;;;8301847;28;20136;-90
2023/12/11 14:06:41;;;;;;;9.73;4.85;;;;;;;;;;8303208;28;20171;-91
2023/12/11 14:10:46;;;;;;;9.50;4.80;;;;;;;;;;8302967;28;20038;-91
2023/12/11 14:14:49;;;;;;;9.25;5.05;;;;;;;;;;8302266;28;20060;-92
2023/12/11 14:18:52;;;;;;;13.20;5.50;;;;;;;;;;8302840;28;20386;-91
2023/12/11 14:22:55;;;;;;;12.63;4.88;;;;;;;;;;8303526;28;20056;-92
2023/12/11 14:27:00;;;;;;;18.42;8.68;;;;;;;;;;8303692;28;20148;-91
2023/12/11 14:31:03;;;;;;;42.95;15.95;;;;;;;;;;8304694;28;20049;-92
2023/12/11 14:35:08;;;;;;;14.32;8.15;;;;;;;;;;8302441;28;20413;-92
2023/12/11 14:39:11;;;;;;;19.73;11.23;;;;;;;;;;8302594;28;20042;-93
2023/12/11 14:43:15;;;;;;;23.45;9.50;;;;;;;;;;8302314;28;20041;-93
2023/12/11 14:47:18;;;;;;;15.95;9.35;;;;;;;;;;8302412;28;20500;-90
2023/12/11 14:51:22;;;;;;;13.48;6.43;;;;;;;;;;8302215;28;20045;-93
2023/12/11 14:55:25;;;;;;;7.57;5.25;;;;;;;;;;8302019;28;20074;-93
2023/12/11 14:59:30;;;;;;;11.90;6.20;;;;;;;;;;8302306;28;20124;-92
2023/12/11 15:03:33;;;;;;;13.70;7.03;;;;;;;;;;8331857;28;20132;-93
2023/12/11 15:07:36;;;;;;;16.67;7.80;;;;;;;;;;8334644;28;20053;-92
2023/12/11 15:11:39;;;;;;;16.83;7.47;;;;;;;;;;8334465;28;20505;-90
2023/12/11 15:15:44;;;;;;;12.43;6.50;;;;;;;;;;8334007;28;20072;-93
2023/12/11 15:19:47;;;;;;;13.75;5.88;;;;;;;;;;8334516;28;20049;-94
2023/12/11 15:23:50;;;;;;;19.23;13.05;;;;;;;;;;8334046;28;20049;-90
2023/12/11 15:27:53;;;;;;;15.80;7.90;;;;;;;;;;8332678;28;20049;-93
2023/12/11 15:31:59;;;;;;;26.80;11.30;;;;;;;;;;8317005;28;20109;-92
2023/12/11 15:36:02;;;;;;;112.30;43.67;;;;;;;;;;8333658;28;20482;-93
2023/12/11 15:40:07;;;;;;;18.63;9.15;;;;;;;;;;8333345;28;20048;-92
2023/12/11 15:44:10;;;;;;;16.23;6.53;;;;;;;;;;8333905;28;20053;-93
2023/12/11 15:48:15;;;;;;;14.52;7.78;;;;;;;;;;8333175;28;20100;-92
2023/12/11 15:52:18;;;;;;;17.70;8.05;;;;;;;;;;8333301;28;20048;-92
2023/12/11 15:56:21;;;;;;;16.00;7.60;;;;;;;;;;8333128;28;20045;-93
2023/12/11 16:00:24;;;;;;;16.20;8.00;;;;;;;;;;8332853;28;20057;-91
2023/12/11 16:04:28;;;;;;;17.65;7.68;;;;;;;;;;8333286;28;20132;-92
2023/12/11 16:08:31;;;;;;;14.95;7.60;;;;;;;;;;8332975;28;20473;-92
2023/12/11 16:12:34;;;;;;;38.22;12.35;;;;;;;;;;8332687;28;20049;-92
2023/12/11 16:16:37;;;;;;;19.40;7.88;;;;;;;;;;8333324;28;20045;-91
2023/12/11 16:20:46;;;;;;;23.80;10.18;;;;;;;;;;8240267;28;20061;-90
2023/12/11 16:24:50;;;;;;;10.70;6.13;;;;;;;;;;8239150;28;20059;-92
2023/12/11 16:28:53;;;;;;;21.67;12.88;;;;;;;;;;8240929;28;20071;-92
2023/12/11 16:32:56;;;;;;;12.68;6.90;;;;;;;;;;8230666;28;20059;-90
2023/12/11 16:37:01;;;;;;;19.00;10.00;;;;;;;;;;8253778;28;20061;-92
2023/12/11 16:41:04;;;;;;;41.15;19.05;;;;;;;;;;8338288;28;20136;-92
2023/12/11 16:45:10;;;;;;;20.20;8.90;;;;;;;;;;8338564;28;20049;-92
2023/12/11 16:49:14;;;;;;;14.07;8.25;;;;;;;;;;8338580;28;20052;-92
2023/12/11 16:53:18;;;;;;;13.82;6.70;;;;;;;;;;8338196;28;20133;-91
2023/12/11 16:57:21;;;;;;;146.25;73.72;;;;;;;;;;8337851;28;20132;-90
2023/12/11 17:01:24;;;;;;;17.73;9.18;;;;;;;;;;8337861;28;20050;-92
2023/12/11 17:05:27;;;;;;;23.67;14.55;;;;;;;;;;8337732;28;20477;-91
2023/12/11 17:09:31;;;;;;;20.27;10.15;;;;;;;;;;8337774;28;20051;-92
2023/12/11 17:13:34;;;;;;;45.28;22.58;;;;;;;;;;8337515;28;20068;-93
2023/12/11 17:17:37;;;;;;;26.63;11.70;;;;;;;;;;8319831;28;20056;-91
2023/12/11 17:21:42;;;;;;;45.10;21.92;;;;;;;;;;8337760;28;20068;-91
2023/12/11 17:25:46;;;;;;;73.63;37.58;;;;;;;;;;8337285;28;20172;-92
2023/12/11 17:29:49;;;;;;;23.27;11.40;;;;;;;;;;8337208;28;20485;-91
2023/12/11 17:33:52;;;;;;;24.58;12.18;;;;;;;;;;8337034;28;20552;-91
2023/12/11 17:37:55;;;;;;;36.33;20.33;;;;;;;;;;8336725;28;20092;-92
2023/12/11 17:41:59;;;;;;;34.67;16.63;;;;;;;;;;8336788;28;20548;-92
2023/12/11 17:46:03;;;;;;;52.15;22.38;;;;;;;;;;8336909;28;20133;-92
2023/12/11 17:50:07;;;;;;;27.73;14.15;;;;;;;;;;8335633;28;20049;-93
2023/12/11 17:54:10;;;;;;;43.47;19.30;;;;;;;;;;8319297;28;20185;-90
2023/12/11 17:58:15;;;;;;;38.60;17.38;;;;;;;;;;8336545;28;20049;-91
2023/12/11 18:02:18;;;;;;;19.45;11.07;;;;;;;;;;8335681;28;20058;-92
2023/12/11 18:06:21;;;;;;;25.83;13.27;;;;;;;;;;8336269;28;20500;-92
2023/12/11 18:10:24;;;;;;;27.08;13.75;;;;;;;;;;8336100;28;20072;-92
2023/12/11 18:14:29;;;;;;;35.60;15.63;;;;;;;;;;8335861;28;20041;-92
2023/12/11 18:18:34;;;;;;;24.40;13.00;;;;;;;;;;8336429;28;20053;-91
2023/12/11 18:22:38;;;;;;;21.17;11.07;;;;;;;;;;8335634;28;20045;-92
2023/12/11 18:26:40;;;;;;;32.58;14.10;;;;;;;;;;8335928;28;20050;-92
2023/12/11 18:30:45;;;;;;;32.17;15.15;;;;;;;;;;8335768;28;20052;-92
2023/12/11 18:34:49;;;;;;;24.85;13.20;;;;;;;;;;8335084;28;20132;-91
2023/12/11 18:38:52;;;;;;;27.88;11.45;;;;;;;;;;8335316;28;20061;-92
2023/12/11 18:42:55;;;;;;;28.00;12.00;;;;;;;;;;8335217;28;20056;-93
2023/12/11 18:47:00;;;;;;;27.65;13.18;;;;;;;;;;8335016;28;20065;-92
2023/12/11 18:51:03;;;;;;;31.08;15.30;;;;;;;;;;8335798;28;20069;-91
2023/12/11 18:55:07;;;;;;;32.58;13.55;;;;;;;;;;8334829;28;20087;-92
2023/12/11 18:59:13;;;;;;;26.25;12.07;;;;;;;;;;8335199;28;20045;-93
2023/12/11 19:03:18;;;;;;;36.30;14.20;;;;;;;;;;8315318;28;20057;-94
2023/12/11 19:07:22;;;;;;;47.40;14.82;;;;;;;;;;8333197;28;20049;-93
2023/12/11 19:11:27;;;;;;;25.98;13.35;;;;;;;;;;8334195;28;20407;-91
2023/12/11 19:15:31;;;;;;;24.15;12.52;;;;;;;;;;8333666;28;20046;-91
2023/12/11 19:19:35;;;;;;;35.60;16.58;;;;;;;;;;8333666;28;20100;-91
2023/12/11 19:23:43;;;;;;;32.63;14.80;;;;;;;;;;8333469;28;20049;-90
2023/12/11 19:27:47;;;;;;;35.15;15.68;;;;;;;;;;8333458;28;20049;-90
2023/12/11 19:31:51;;;;;;;27.25;12.98;;;;;;;;;;8333026;28;20449;-90
2023/12/11 19:35:56;;;;;;;31.55;14.57;;;;;;;;;;8332945;28;20548;-91
2023/12/11 19:40:02;;;;;;;35.45;16.83;;;;;;;;;;8332596;28;20049;-91
2023/12/11 19:44:06;;;;;;;36.33;16.05;;;;;;;;;;8332749;28;20042;-90
2023/12/11 19:48:09;;;;;;;29.63;14.23;;;;;;;;;;8332674;28;20052;-92
2023/12/11 19:52:14;;;;;;;29.10;15.27;;;;;;;;;;8332186;28;20465;-93
2023/12/11 19:56:21;;;;;;;30.15;14.70;;;;;;;;;;8335057;28;20046;-92
2023/12/11 20:00:25;;;;;;;35.58;19.08;;;;;;;;;;8334763;28;20061;-93
2023/12/11 20:04:28;;;;;;;30.83;14.75;;;;;;;;;;8332284;28;20045;-91
2023/12/11 20:08:32;;;;;;;22.50;11.70;;;;;;;;;;8332273;28;20052;-92
2023/12/11 20:12:35;;;;;;;26.95;12.65;;;;;;;;;;8331490;28;20132;-91
2023/12/11 20:16:39;;;;;;;29.50;16.13;;;;;;;;;;8331778;28;20049;-92
2023/12/11 20:20:42;;;;;;;29.63;16.40;;;;;;;;;;8332029;28;20049;-92
2023/12/11 20:24:46;;;;;;;28.25;13.52;;;;;;;;;;8331639;28;20056;-92
2023/12/11 20:28:49;;;;;;;25.98;13.27;;;;;;;;;;8331792;28;20060;-91
2023/12/11 20:32:53;;;;;;;25.73;13.18;;;;;;;;;;8331704;28;20049;-90
2023/12/11 20:36:57;;;;;;;37.97;18.02;;;;;;;;;;8331660;28;20045;-90
2023/12/11 20:41:02;;;;;;;29.95;13.52;;;;;;;;;;8332025;28;20045;-90
2023/12/11 20:45:07;;;;;;;31.17;13.55;;;;;;;;;;8331744;28;20045;-92
2023/12/11 20:49:10;;;;;;;31.70;13.95;;;;;;;;;;8331837;28;20095;-92
2023/12/11 20:53:13;;;;;;;33.67;15.80;;;;;;;;;;8331824;28;20129;-92
2023/12/11 20:57:18;;;;;;;38.30;16.65;;;;;;;;;;8331291;28;20096;-92
2023/12/11 21:01:28;;;;;;;40.92;16.00;;;;;;;;;;8331327;28;20116;-92
2023/12/11 21:05:31;;;;;;;33.00;14.23;;;;;;;;;;8331537;28;20091;-91
2023/12/11 21:09:42;;;;;;;28.40;12.38;;;;;;;;;;8331089;28;20386;-91
2023/12/11 21:13:47;;;;;;;28.77;12.57;;;;;;;;;;8331419;28;20099;-91
2023/12/11 21:17:50;;;;;;;28.80;12.23;;;;;;;;;;8331320;28;20042;-91
2023/12/11 21:21:54;;;;;;;25.88;13.30;;;;;;;;;;8330718;28;20056;-92
2023/12/11 21:25:57;;;;;;;31.92;14.20;;;;;;;;;;8333669;28;20444;-90
2023/12/11 21:30:05;;;;;;;26.45;12.30;;;;;;;;;;8336950;28;20051;-90
2023/12/11 21:34:08;;;;;;;35.90;14.77;;;;;;;;;;8337645;28;20488;-90
2023/12/11 21:42:30;;;;;;;26.52;12.73;;;;;;;;;;8333838;28;20080;-92
2023/12/11 21:46:34;;;;;;;27.52;13.77;;;;;;;;;;8336139;28;20128;-90
2023/12/11 21:50:38;;;;;;;30.05;12.68;;;;;;;;;;8335846;28;20056;-91
2023/12/11 21:54:41;;;;;;;43.58;18.08;;;;;;;;;;8335809;28;20046;-90
2023/12/11 21:58:44;;;;;;;26.17;12.45;;;;;;;;;;8335829;28;20464;-91
2023/12/11 22:02:49;;;;;;;31.65;13.57;;;;;;;;;;8335364;28;20394;-91
2023/12/11 22:06:52;;;;;;;50.38;18.98;;;;;;;;;;8335761;28;20041;-91
2023/12/11 22:10:55;;;;;;;92.65;31.00;;;;;;;;;;8335225;28;20049;-92
2023/12/11 22:14:58;;;;;;;30.83;14.73;;;;;;;;;;8334974;28;20038;-91
2023/12/11 22:19:03;;;;;;;38.95;17.05;;;;;;;;;;8335133;28;20053;-92
2023/12/11 22:23:07;;;;;;;33.53;14.52;;;;;;;;;;8335065;28;20042;-91
2023/12/11 22:27:37;;;;;;;28.63;13.07;;;;;;;;;;8334824;28;20080;-92
2023/12/11 22:31:44;;;;;;;39.30;21.20;;;;;;;;;;8329676;28;20057;-92
2023/12/11 22:36:03;;;;;;;38.97;18.92;;;;;;;;;;8334471;28;20045;-91
2023/12/11 22:40:10;;;;;;;42.33;18.67;;;;;;;;;;8334872;28;20099;-92
2023/12/11 22:44:15;;;;;;;31.92;14.52;;;;;;;;;;8334782;28;20049;-92
2023/12/11 22:48:18;;;;;;;31.38;14.85;;;;;;;;;;8334549;28;20464;-93
2023/12/11 22:52:22;;;;;;;28.05;12.70;;;;;;;;;;8334985;28;20461;-92
2023/12/11 22:56:26;;;;;;;28.17;13.45;;;;;;;;;;8334764;28;20136;-92
2023/12/11 23:00:31;;;;;;;32.35;15.85;;;;;;;;;;8334038;28;20145;-92
2023/12/11 23:04:34;;;;;;;27.48;14.32;;;;;;;;;;8334200;28;20083;-92
2023/12/11 23:08:39;;;;;;;32.47;16.45;;;;;;;;;;8334050;28;20072;-91
2023/12/11 23:12:41;;;;;;;27.08;13.27;;;;;;;;;;8333964;28;20405;-91
2023/12/11 23:16:44;;;;;;;35.03;14.52;;;;;;;;;;8333846;28;20084;-91
2023/12/11 23:20:47;;;;;;;35.78;16.38;;;;;;;;;;8315782;28;20049;-92
2023/12/11 23:24:51;;;;;;;39.17;15.07;;;;;;;;;;8333884;28;20049;-94
2023/12/11 23:28:55;;;;;;;33.35;15.43;;;;;;;;;;8334658;28;20517;-90
2023/12/11 23:32:57;;;;;;;35.42;16.23;;;;;;;;;;8335116;28;20139;-91
2023/12/11 23:37:00;;;;;;;30.42;14.85;;;;;;;;;;8333458;28;20073;-92
2023/12/11 23:41:05;;;;;;;34.42;14.07;;;;;;;;;;8333471;28;20045;-92
2023/12/11 23:45:09;;;;;;;36.00;14.43;;;;;;;;;;8333205;28;20049;-93
2023/12/11 23:49:12;;;;;;;32.22;14.68;;;;;;;;;;8332576;28;20452;-91
2023/12/11 23:53:15;;;;;;;36.53;15.13;;;;;;;;;;8333034;28;20421;-89
2023/12/11 23:57:19;;;;;;;32.30;15.48;;;;;;;;;;8332962;28;20553;-92
